Time;durP1;ratioP1;P1;durP2;ratioP2;P2;SDS_P1;SDS_P2;PMS_P1;PMS_P2;Temp;Humidity;BMP_temperature;BMP_pressure;BME280_temperature;BME280_humidity;BME280_pressure;Samples;Min_cycle;Max_cycle;Signal;HPM_P1;HPM_P2
2021/12/03 00:00:18;;;;;;;6.88;1.80;;;4.50;99.90;;;;;;4952384;28;20038;-80
2021/12/03 00:02:44;;;;;;;8.95;1.65;;;4.50;99.90;;;;;;4963829;28;20066;-81
2021/12/03 00:05:10;;;;;;;8.50;1.63;;;4.40;99.90;;;;;;4970405;28;20043;-81
2021/12/03 00:07:37;;;;;;;3.55;1.52;;;4.40;99.90;;;;;;4946665;28;20055;-81
2021/12/03 00:10:06;;;;;;;6.38;1.55;;;4.40;99.90;;;;;;4945735;28;20070;-81
2021/12/03 00:12:32;;;;;;;4.63;1.70;;;4.50;99.90;;;;;;4950570;28;20487;-81
2021/12/03 00:14:58;;;;;;;9.10;2.00;;;4.50;99.90;;;;;;4963948;28;20078;-81
2021/12/03 00:17:23;;;;;;;7.72;1.77;;;4.50;99.90;;;;;;4951832;28;20053;-81
2021/12/03 00:19:49;;;;;;;5.90;1.65;;;4.60;99.90;;;;;;4950356;28;20106;-81
2021/12/03 00:22:14;;;;;;;6.25;1.88;;;4.50;99.90;;;;;;4945426;29;20050;-81
2021/12/03 00:24:40;;;;;;;7.90;2.05;;;4.50;99.90;;;;;;4929870;28;20078;-80
2021/12/03 00:27:06;;;;;;;8.02;1.80;;;4.50;99.90;;;;;;4932346;29;20047;-81
2021/12/03 00:29:32;;;;;;;7.95;1.98;;;4.50;99.90;;;;;;4931168;29;20073;-81
2021/12/03 00:31:58;;;;;;;5.68;2.38;;;4.50;99.90;;;;;;4949671;28;20039;-81
2021/12/03 00:34:26;;;;;;;9.95;2.20;;;4.40;99.90;;;;;;4933370;29;20051;-81
2021/12/03 00:36:53;;;;;;;8.13;2.42;;;4.40;99.90;;;;;;4931396;29;20087;-81
2021/12/03 00:39:18;;;;;;;5.63;1.77;;;4.40;99.90;;;;;;4929696;29;20132;-81
2021/12/03 00:41:51;;;;;;;6.03;2.22;;;4.40;99.90;;;;;;4934721;29;20086;-81
2021/12/03 00:44:20;;;;;;;6.78;1.88;;;4.40;99.90;;;;;;4951973;29;20394;-81
2021/12/03 00:46:45;;;;;;;5.25;1.90;;;4.40;99.90;;;;;;4930836;29;20048;-81
2021/12/03 00:49:11;;;;;;;7.93;2.05;;;4.40;99.90;;;;;;4948544;28;20050;-81
2021/12/03 00:51:36;;;;;;;10.38;2.75;;;4.50;99.90;;;;;;4931495;29;20051;-81
2021/12/03 00:54:02;;;;;;;5.88;1.70;;;4.60;99.90;;;;;;4933025;29;20086;-81
2021/12/03 00:56:28;;;;;;;7.82;1.90;;;4.60;99.90;;;;;;4928281;29;20043;-79
2021/12/03 00:58:53;;;;;;;6.35;1.80;;;4.70;99.90;;;;;;4931347;29;20455;-79
2021/12/03 01:01:19;;;;;;;3.85;1.50;;;4.80;99.90;;;;;;4931934;29;20043;-79
2021/12/03 01:03:45;;;;;;;6.70;1.60;;;5.00;99.90;;;;;;4930947;29;20047;-79
2021/12/03 01:06:13;;;;;;;5.50;1.83;;;4.70;99.90;;;;;;4949934;28;20039;-80
2021/12/03 01:08:39;;;;;;;4.85;1.40;;;4.70;99.90;;;;;;4949344;29;20574;-80
2021/12/03 01:11:08;;;;;;;4.13;1.50;;;4.70;99.90;;;;;;4948470;29;20112;-81
2021/12/03 01:13:36;;;;;;;4.28;1.50;;;4.70;99.90;;;;;;4931737;29;20039;-80
2021/12/03 01:16:02;;;;;;;4.47;1.50;;;4.60;99.90;;;;;;4931830;29;20566;-80
2021/12/03 01:18:28;;;;;;;4.07;1.50;;;4.60;99.90;;;;;;4930901;29;20051;-81
2021/12/03 01:20:53;;;;;;;4.15;1.40;;;4.60;99.90;;;;;;4944565;28;20384;-80
2021/12/03 01:23:19;;;;;;;5.80;1.63;;;4.50;99.90;;;;;;4949753;28;20145;-81
2021/12/03 01:25:45;;;;;;;3.90;1.30;;;4.50;99.90;;;;;;4952328;28;20070;-81
2021/12/03 01:28:12;;;;;;;3.08;2.13;;;4.50;99.90;;;;;;4955821;28;20050;-80
2021/12/03 01:30:38;;;;;;;4.03;1.65;;;4.60;99.90;;;;;;4956619;28;20051;-81
2021/12/03 01:33:06;;;;;;;3.10;1.40;;;4.60;99.90;;;;;;4970130;28;20509;-81
2021/12/03 01:35:32;;;;;;;4.35;1.27;;;4.50;99.90;;;;;;4949839;28;20043;-81
2021/12/03 01:37:58;;;;;;;4.50;1.33;;;4.50;99.90;;;;;;4947553;28;20126;-81
2021/12/03 01:40:27;;;;;;;4.93;1.48;;;4.50;99.90;;;;;;4949616;28;20122;-81
2021/12/03 01:42:53;;;;;;;4.95;1.52;;;4.50;99.90;;;;;;4960965;28;20129;-81
2021/12/03 01:45:23;;;;;;;6.43;1.52;;;4.50;99.90;;;;;;4943489;28;20061;-82
2021/12/03 01:47:50;;;;;;;2.97;1.50;;;4.50;99.90;;;;;;4951098;28;20490;-81
2021/12/03 01:50:16;;;;;;;4.90;1.63;;;4.50;99.90;;;;;;4966923;28;20097;-80
2021/12/03 01:52:42;;;;;;;3.90;1.30;;;4.50;99.90;;;;;;4948241;28;20046;-80
2021/12/03 01:55:11;;;;;;;2.00;1.20;;;4.50;99.90;;;;;;4952515;28;20050;-80
2021/12/03 01:57:36;;;;;;;6.18;1.50;;;4.50;99.90;;;;;;4948262;28;20502;-80
2021/12/03 02:00:11;;;;;;;2.33;1.40;;;4.50;99.90;;;;;;4951187;28;20094;-81
2021/12/03 02:02:43;;;;;;;3.35;1.52;;;4.50;99.90;;;;;;4954389;28;20054;-80
2021/12/03 02:05:09;;;;;;;6.15;1.40;;;4.50;99.90;;;;;;4944563;28;20109;-81
2021/12/03 02:07:35;;;;;;;2.72;1.30;;;4.50;99.90;;;;;;4966838;28;20495;-81
2021/12/03 02:10:00;;;;;;;3.53;1.35;;;4.50;99.90;;;;;;4949456;28;20042;-80
2021/12/03 02:12:29;;;;;;;5.82;1.55;;;4.50;99.90;;;;;;4951759;28;20069;-80
2021/12/03 02:15:19;;;;;;;6.10;1.60;;;4.50;99.90;;;;;;4958250;23;20039;-80
2021/12/03 02:18:35;;;;;;;5.30;1.45;;;4.20;99.90;;;;;;4949304;29;20459;-80
2021/12/03 02:21:17;;;;;;;4.22;1.85;;;4.40;99.90;;;;;;4948874;28;20150;-81
2021/12/03 02:23:45;;;;;;;5.30;1.70;;;4.40;99.90;;;;;;4931703;29;20555;-81
2021/12/03 02:26:11;;;;;;;8.80;1.70;;;4.50;99.90;;;;;;4930767;29;20134;-81
2021/12/03 02:28:42;;;;;;;5.60;1.65;;;4.50;99.90;;;;;;4930044;29;20054;-81
2021/12/03 02:31:07;;;;;;;4.00;1.67;;;4.50;99.90;;;;;;4930361;29;20134;-81
2021/12/03 02:33:34;;;;;;;7.10;1.83;;;4.50;99.90;;;;;;4950423;29;20121;-80
2021/12/03 02:36:00;;;;;;;7.20;1.67;;;4.60;99.90;;;;;;4925353;29;20470;-80
2021/12/03 02:38:26;;;;;;;7.32;1.92;;;4.60;99.90;;;;;;4943762;29;20050;-80
2021/12/03 02:40:53;;;;;;;3.88;1.55;;;4.60;99.90;;;;;;4930569;29;20039;-80
2021/12/03 02:43:19;;;;;;;4.95;1.50;;;4.60;99.90;;;;;;4929469;29;20044;-80
2021/12/03 02:45:50;;;;;;;5.95;2.10;;;4.60;99.90;;;;;;4928962;29;20381;-80
2021/12/03 02:48:17;;;;;;;6.07;1.75;;;4.60;99.90;;;;;;4930364;28;20404;-81
2021/12/03 02:50:43;;;;;;;4.95;1.60;;;4.60;99.90;;;;;;4929398;29;20043;-80
2021/12/03 02:53:09;;;;;;;3.95;1.75;;;4.70;99.90;;;;;;4931005;29;20463;-81
2021/12/03 02:55:35;;;;;;;5.00;1.52;;;4.70;99.90;;;;;;4948732;29;20098;-81
2021/12/03 02:58:01;;;;;;;6.55;1.40;;;4.70;99.90;;;;;;4931544;29;20094;-80
2021/12/03 03:00:28;;;;;;;9.15;1.83;;;4.80;99.90;;;;;;4931888;29;20050;-80
2021/12/03 03:02:55;;;;;;;7.28;2.08;;;4.80;99.90;;;;;;4931750;29;20090;-81
2021/12/03 03:05:23;;;;;;;3.45;1.40;;;4.90;99.90;;;;;;4932158;29;20499;-81
2021/12/03 03:07:50;;;;;;;6.90;1.67;;;4.90;99.90;;;;;;4932074;29;20515;-81
2021/12/03 03:10:22;;;;;;;6.85;1.80;;;4.90;99.90;;;;;;4929114;29;20054;-81
2021/12/03 03:12:48;;;;;;;5.20;1.85;;;4.80;99.90;;;;;;4930698;29;20117;-81
2021/12/03 03:15:16;;;;;;;4.32;1.52;;;4.80;99.90;;;;;;4931582;29;20055;-80
2021/12/03 03:17:42;;;;;;;6.30;1.50;;;4.80;99.90;;;;;;4929404;29;20050;-81
2021/12/03 03:20:14;;;;;;;4.13;1.55;;;4.70;99.90;;;;;;4933767;29;20047;-81
2021/12/03 03:22:42;;;;;;;7.88;1.70;;;4.70;99.90;;;;;;4930217;29;20054;-80
2021/12/03 03:25:10;;;;;;;7.15;1.88;;;4.70;99.90;;;;;;4931761;29;20330;-81
2021/12/03 03:27:36;;;;;;;2.65;1.30;;;4.70;99.90;;;;;;4929562;29;20467;-81
2021/12/03 03:30:05;;;;;;;3.85;1.75;;;4.80;99.90;;;;;;4931963;29;20046;-81
2021/12/03 03:32:34;;;;;;;2.97;1.50;;;4.80;99.90;;;;;;4929478;29;20085;-81
2021/12/03 03:34:59;;;;;;;5.82;1.48;;;4.80;99.90;;;;;;4930180;29;20051;-81
2021/12/03 03:37:27;;;;;;;6.13;1.50;;;4.70;99.90;;;;;;4930954;29;20268;-81
2021/12/03 03:39:53;;;;;;;4.35;1.55;;;4.80;99.90;;;;;;4931461;29;20129;-81
2021/12/03 03:42:19;;;;;;;3.70;1.52;;;4.80;99.90;;;;;;4944941;28;20114;-80
2021/12/03 03:44:44;;;;;;;2.97;1.25;;;4.80;99.90;;;;;;4931428;29;20170;-81
2021/12/03 03:47:14;;;;;;;10.30;1.92;;;4.90;99.90;;;;;;4931215;29;20050;-80
2021/12/03 03:49:39;;;;;;;7.43;1.48;;;4.90;99.90;;;;;;4932387;29;20131;-80
2021/12/03 03:52:06;;;;;;;9.98;1.73;;;4.90;99.90;;;;;;4931518;29;20503;-80
2021/12/03 03:54:31;;;;;;;5.70;1.60;;;4.90;99.90;;;;;;4931981;29;20587;-80
2021/12/03 03:56:59;;;;;;;5.65;1.80;;;4.90;99.90;;;;;;4930862;29;20142;-80
2021/12/03 03:59:25;;;;;;;5.93;1.90;;;4.80;99.90;;;;;;4928690;29;20047;-81
2021/12/03 04:01:52;;;;;;;5.82;1.83;;;4.80;99.90;;;;;;4954654;28;20051;-80
2021/12/03 04:04:18;;;;;;;8.93;1.80;;;4.80;99.90;;;;;;4938031;29;20047;-81
2021/12/03 04:06:44;;;;;;;7.00;2.10;;;4.80;99.90;;;;;;4935367;29;20051;-80
2021/12/03 04:09:11;;;;;;;7.38;2.08;;;4.80;99.90;;;;;;4936493;29;20047;-80
2021/12/03 04:11:37;;;;;;;5.43;1.85;;;4.70;99.90;;;;;;4934988;29;20138;-80
2021/12/03 04:14:03;;;;;;;9.60;2.28;;;4.70;99.90;;;;;;4937911;29;20145;-81
2021/12/03 04:16:30;;;;;;;8.10;2.25;;;4.60;99.90;;;;;;4954105;29;20070;-81
2021/12/03 04:18:57;;;;;;;6.82;1.90;;;4.60;99.90;;;;;;4951895;28;20055;-81
2021/12/03 04:21:23;;;;;;;5.70;2.17;;;4.50;99.90;;;;;;4936347;29;20058;-82
2021/12/03 04:23:49;;;;;;;9.90;2.50;;;4.50;99.90;;;;;;4937828;29;20403;-81
2021/12/03 04:26:15;;;;;;;7.35;2.20;;;4.40;99.90;;;;;;4934519;28;20047;-81
2021/12/03 04:28:41;;;;;;;5.78;1.98;;;4.40;99.90;;;;;;4936041;29;20109;-81
2021/12/03 04:31:07;;;;;;;6.75;2.10;;;4.40;99.90;;;;;;4935972;29;20439;-80
2021/12/03 04:33:32;;;;;;;7.25;2.00;;;4.30;99.90;;;;;;4938396;28;20043;-80
2021/12/03 04:35:58;;;;;;;5.07;1.60;;;4.30;99.90;;;;;;4933195;29;20067;-80
2021/12/03 04:38:24;;;;;;;4.30;1.85;;;4.40;99.90;;;;;;4936966;29;20047;-81
2021/12/03 04:40:50;;;;;;;6.53;1.83;;;4.50;99.90;;;;;;4933124;29;20499;-80
2021/12/03 04:43:16;;;;;;;4.72;1.80;;;4.60;99.90;;;;;;4937910;29;20039;-80
2021/12/03 04:45:42;;;;;;;4.80;1.77;;;4.60;99.90;;;;;;4936815;29;20046;-80
2021/12/03 04:48:08;;;;;;;5.53;1.80;;;4.70;99.90;;;;;;4935210;29;20048;-80
2021/12/03 04:50:37;;;;;;;6.07;1.95;;;4.80;99.90;;;;;;4932591;28;20071;-80
2021/12/03 04:53:05;;;;;;;4.07;1.80;;;4.80;99.90;;;;;;4937450;29;20219;-80
2021/12/03 04:55:31;;;;;;;6.80;2.00;;;4.90;99.90;;;;;;4934763;29;20495;-80
2021/12/03 04:57:57;;;;;;;4.55;1.98;;;5.20;99.90;;;;;;4938316;29;20051;-80
2021/12/03 05:00:38;;;;;;;12.13;3.00;;;5.20;99.90;;;;;;4952710;29;20169;-80
2021/12/03 05:03:04;;;;;;;5.70;1.75;;;5.20;99.90;;;;;;4956349;29;20057;-80
2021/12/03 05:05:33;;;;;;;7.50;2.13;;;5.20;99.90;;;;;;4955436;29;20051;-80
2021/12/03 05:08:07;;;;;;;3.85;1.88;;;5.00;99.90;;;;;;4951912;28;20114;-81
2021/12/03 05:10:35;;;;;;;8.95;1.90;;;5.10;99.90;;;;;;4954056;29;20368;-81
2021/12/03 05:13:11;;;;;;;8.27;2.05;;;5.00;99.90;;;;;;4952743;28;20058;-81
2021/12/03 05:15:38;;;;;;;6.93;1.98;;;4.90;99.90;;;;;;4950781;29;20153;-80
2021/12/03 05:18:08;;;;;;;5.65;1.50;;;4.70;99.90;;;;;;4951174;29;20039;-80
2021/12/03 05:20:37;;;;;;;7.18;1.90;;;4.90;99.90;;;;;;4951521;29;20051;-80
2021/12/03 05:23:03;;;;;;;4.53;1.60;;;4.60;99.90;;;;;;4934910;29;20471;-80
2021/12/03 05:25:30;;;;;;;8.90;1.80;;;4.50;99.90;;;;;;4952905;29;20047;-80
2021/12/03 05:27:56;;;;;;;8.38;1.98;;;4.50;99.90;;;;;;4934146;29;20099;-80
2021/12/03 05:30:21;;;;;;;5.90;1.80;;;4.60;99.90;;;;;;4933127;29;20047;-80
2021/12/03 05:32:47;;;;;;;7.97;1.85;;;4.60;99.90;;;;;;4932030;29;20046;-80
2021/12/03 05:35:13;;;;;;;6.90;1.85;;;4.70;99.90;;;;;;4928005;29;20040;-80
2021/12/03 05:37:39;;;;;;;8.70;2.22;;;4.70;99.90;;;;;;4926535;29;20061;-81
2021/12/03 05:40:07;;;;;;;6.82;1.88;;;4.70;99.90;;;;;;4949189;29;20035;-81
2021/12/03 05:42:33;;;;;;;7.60;1.95;;;4.70;99.90;;;;;;4948806;29;20388;-81
2021/12/03 05:44:59;;;;;;;13.38;2.45;;;4.80;99.90;;;;;;4949313;29;20035;-81
2021/12/03 05:47:25;;;;;;;8.60;2.40;;;4.70;99.90;;;;;;4927765;29;20051;-82
2021/12/03 05:49:51;;;;;;;6.38;2.20;;;4.80;99.90;;;;;;4932451;29;20053;-81
2021/12/03 05:52:17;;;;;;;10.60;2.58;;;4.80;99.90;;;;;;4928585;29;20051;-81
2021/12/03 05:54:43;;;;;;;7.18;2.95;;;5.00;99.90;;;;;;4947372;29;20487;-79
2021/12/03 05:57:09;;;;;;;10.30;2.20;;;5.10;99.90;;;;;;4933059;29;20054;-80
2021/12/03 05:59:34;;;;;;;7.30;2.17;;;5.10;99.90;;;;;;4947017;29;20043;-80
2021/12/03 06:02:00;;;;;;;9.25;1.90;;;5.10;99.90;;;;;;4947374;29;20062;-80
2021/12/03 06:04:32;;;;;;;8.60;2.90;;;5.10;99.90;;;;;;4932645;29;20054;-80
2021/12/03 06:16:13;;;;;;;11.50;4.25;;;4.00;99.90;;;;;;4978080;23;20097;-80
2021/12/03 06:18:41;;;;;;;10.35;3.03;;;5.10;99.90;;;;;;4944803;28;20086;-80
2021/12/03 06:21:12;;;;;;;9.95;2.45;;;5.10;99.90;;;;;;4938004;28;20034;-80
2021/12/03 06:23:39;;;;;;;10.38;2.58;;;5.20;99.90;;;;;;4950204;28;20062;-80
2021/12/03 06:26:07;;;;;;;7.03;2.63;;;5.20;99.90;;;;;;4945595;28;20043;-81
2021/12/03 06:32:15;;;;;;;10.48;2.08;;;5.10;99.90;;;;;;4952555;28;20137;-80
2021/12/03 06:34:41;;;;;;;9.35;2.50;;;5.40;99.90;;;;;;4949387;28;20051;-80
2021/12/03 06:37:21;;;;;;;8.60;2.45;;;5.30;99.90;;;;;;4949970;28;20049;-81
2021/12/03 06:40:03;;;;;;;9.25;2.40;;;5.20;99.90;;;;;;4950853;28;20117;-81
2021/12/03 06:42:58;;;;;;;;;;;;;;;;;;;;;
2021/12/03 06:46:04;;;;;;;7.40;2.13;;;5.30;99.90;;;;;;4886841;29;20051;-80
2021/12/03 06:48:35;;;;;;;15.63;2.75;;;5.40;99.90;;;;;;4872713;29;20052;-80
2021/12/03 06:59:41;;;;;;;7.18;2.38;;;5.60;99.90;;;;;;4755160;30;20059;-79
2021/12/03 07:06:06;;;;;;;3.55;1.70;;;5.70;99.90;;;;;;4781527;29;20049;-79
2021/12/03 07:08:43;;;;;;;7.07;2.13;;;5.60;99.90;;;;;;4778928;29;20058;-79
2021/12/03 07:11:09;;;;;;;8.23;2.50;;;5.60;99.90;;;;;;4820840;29;20074;-80
2021/12/03 07:13:56;;;;;;;7.65;2.10;;;5.60;99.90;;;;;;4877743;29;20052;-81
2021/12/03 07:16:22;;;;;;;8.60;2.42;;;5.60;99.90;;;;;;4891446;29;20075;-81
2021/12/03 07:18:48;;;;;;;10.10;2.60;;;5.60;99.90;;;;;;4889655;29;20111;-80
2021/12/03 07:21:14;;;;;;;9.93;3.50;;;5.60;99.90;;;;;;4913359;29;20176;-81
2021/12/03 07:23:42;;;;;;;11.77;2.83;;;5.70;99.90;;;;;;4954296;28;20091;-81
2021/12/03 07:26:08;;;;;;;8.63;2.70;;;5.70;99.90;;;;;;4967684;28;20074;-81
2021/12/03 07:28:34;;;;;;;8.85;2.75;;;5.80;99.90;;;;;;4963933;28;20140;-81
2021/12/03 07:31:00;;;;;;;11.80;2.58;;;5.80;99.90;;;;;;4967608;28;20136;-80
2021/12/03 07:33:29;;;;;;;11.43;2.90;;;5.80;99.90;;;;;;4968922;28;20582;-80
2021/12/03 07:35:57;;;;;;;11.55;2.88;;;5.80;99.90;;;;;;4949344;28;20170;-79
2021/12/03 07:38:26;;;;;;;14.10;3.28;;;5.80;99.90;;;;;;4947054;28;20042;-80
2021/12/03 07:41:04;;;;;;;12.07;2.72;;;5.80;99.90;;;;;;4965490;28;20050;-79
2021/12/03 07:43:31;;;;;;;13.30;2.70;;;5.80;99.90;;;;;;4948575;28;20039;-79
2021/12/03 07:52:15;;;;;;;7.90;2.10;;;5.50;99.90;;;;;;3310354;23;20406;-80
2021/12/03 07:55:10;;;;;;;11.90;2.80;;;5.40;99.90;;;;;;4950215;29;20063;-80
2021/12/03 07:57:48;;;;;;;9.32;2.88;;;5.80;99.90;;;;;;4951699;28;20129;-79
2021/12/03 08:00:14;;;;;;;8.13;2.00;;;5.90;99.90;;;;;;4941958;29;20057;-79
2021/12/03 08:02:39;;;;;;;8.43;2.63;;;5.20;99.90;;;;;;4962521;28;20046;-80
2021/12/03 08:05:05;;;;;;;11.80;2.30;;;5.80;99.90;;;;;;4945682;28;20516;-82
2021/12/03 08:07:33;;;;;;;9.30;2.72;;;5.80;99.90;;;;;;4948406;28;20047;-79
2021/12/03 08:09:59;;;;;;;10.13;2.95;;;5.90;99.90;;;;;;4953415;28;20454;-80
2021/12/03 08:12:25;;;;;;;10.05;2.25;;;5.90;99.90;;;;;;4952225;28;20047;-79
2021/12/03 08:15:00;;;;;;;11.82;2.30;;;5.80;99.90;;;;;;4951314;28;20055;-80
2021/12/03 08:17:26;;;;;;;11.13;2.53;;;5.80;99.90;;;;;;4947096;28;20157;-81
2021/12/03 08:19:51;;;;;;;12.95;2.97;;;5.80;99.90;;;;;;4948401;28;20126;-80
2021/12/03 08:22:17;;;;;;;10.07;2.42;;;5.80;99.90;;;;;;4948228;28;20054;-81
2021/12/03 08:24:43;;;;;;;10.73;2.90;;;5.80;99.90;;;;;;4971019;28;20043;-80
2021/12/03 08:27:08;;;;;;;8.23;2.55;;;5.90;99.90;;;;;;4950622;28;20466;-81
2021/12/03 08:29:34;;;;;;;9.00;2.60;;;5.90;99.90;;;;;;4952100;28;20050;-81
2021/12/03 08:32:00;;;;;;;7.30;2.40;;;6.00;99.90;;;;;;4947762;28;20136;-80
2021/12/03 08:34:28;;;;;;;13.55;2.97;;;6.00;99.90;;;;;;4950243;28;20085;-81
2021/12/03 08:36:54;;;;;;;10.13;2.40;;;6.00;99.90;;;;;;4951238;28;20047;-79
2021/12/03 08:39:19;;;;;;;6.93;2.20;;;5.90;99.90;;;;;;4953509;28;20049;-80
2021/12/03 08:41:46;;;;;;;9.77;2.50;;;5.90;99.90;;;;;;4958319;28;20376;-80
2021/12/03 08:44:11;;;;;;;9.13;2.42;;;6.00;99.90;;;;;;4951883;28;20050;-81
2021/12/03 08:46:38;;;;;;;10.02;2.53;;;6.00;99.90;;;;;;4946708;28;20059;-80
2021/12/03 08:50:12;;;;;;;11.07;2.35;;;6.00;99.90;;;;;;4952610;28;20497;-79
2021/12/03 08:57:18;;;;;;;10.00;2.65;;;5.90;99.90;;;;;;4955381;28;20047;-80
2021/12/03 08:59:44;;;;;;;12.70;2.80;;;6.10;99.90;;;;;;4954879;28;20142;-80
2021/12/03 09:02:10;;;;;;;9.35;2.63;;;6.10;99.90;;;;;;4976895;28;20129;-79
2021/12/03 09:04:36;;;;;;;8.48;3.22;;;6.00;99.90;;;;;;4977120;28;20038;-80
2021/12/03 09:07:04;;;;;;;11.40;2.42;;;6.00;99.90;;;;;;4954524;28;20454;-81
2021/12/03 09:09:30;;;;;;;9.45;2.80;;;5.90;99.90;;;;;;4952699;28;20142;-81
2021/12/03 09:11:56;;;;;;;10.13;2.60;;;5.90;99.90;;;;;;4973898;28;20043;-81
2021/12/03 09:14:35;;;;;;;8.40;2.22;;;6.00;99.90;;;;;;4952052;28;20054;-80
2021/12/03 09:27:38;;;;;;;9.07;2.75;;;6.00;99.90;;;;;;5518562;23;20050;-80
2021/12/03 09:30:39;;;;;;;9.70;2.72;;;6.00;99.90;;;;;;4951204;28;20070;-79
2021/12/03 09:34:18;;;;;;;10.93;2.25;;;6.20;99.90;;;;;;4966566;28;20082;-80
2021/12/03 09:41:08;;;;;;;6.57;2.22;;;5.70;99.90;;;;;;4873486;29;20130;-79
2021/12/03 09:44:33;;;;;;;4.90;2.08;;;5.60;99.90;;;;;;4874404;29;20055;-79
2021/12/03 09:50:41;;;;;;;6.90;2.10;;;6.00;99.90;;;;;;4866454;29;20064;-78
2021/12/03 09:55:42;;;;;;;9.38;2.55;;;5.80;99.90;;;;;;4902898;29;20053;-79
2021/12/03 10:01:50;;;;;;;11.63;2.38;;;5.90;99.90;;;;;;4972319;28;20054;-81
2021/12/03 10:10:12;;;;;;;6.68;2.17;;;5.90;99.90;;;;;;4953309;28;20046;-81
2021/12/03 10:12:59;;;;;;;;;;;6.00;99.90;;;;;;4971291;28;20089;-79
2021/12/03 10:15:36;;;;;;;11.07;2.15;;;5.90;99.90;;;;;;4954337;28;20408;-80
2021/12/03 10:45:32;;;;;;;11.88;4.43;;;5.50;99.90;;;;;;5205363;23;20059;-80
2021/12/03 10:48:28;;;;;;;10.25;4.68;;;5.40;99.90;;;;;;4927058;29;20074;-79
2021/12/03 10:51:09;;;;;;;11.98;5.07;;;5.30;99.90;;;;;;4930486;29;20110;-79
2021/12/03 10:53:40;;;;;;;11.20;4.40;;;5.20;99.90;;;;;;4926099;29;20054;-79
2021/12/03 10:56:32;;;;;;;6.05;3.67;;;5.10;99.90;;;;;;4951042;29;20043;-80
2021/12/03 10:59:20;;;;;;;9.73;3.90;;;5.00;99.90;;;;;;4951331;29;20121;-80
2021/12/03 13:45:37;;;;;;;15.50;10.68;;;4.90;99.90;;;;;;4932393;29;20138;-78
2021/12/03 14:21:19;;;;;;;19.98;12.73;;;5.00;99.90;;;;;;4931078;29;20435;-77
2021/12/03 14:24:40;;;;;;;19.08;13.55;;;5.00;99.90;;;;;;4949978;29;20063;-76
2021/12/03 14:52:08;;;;;;;16.73;12.75;;;5.20;99.90;;;;;;4931263;29;20087;-77
2021/12/03 14:57:09;;;;;;;16.40;9.73;;;5.30;99.90;;;;;;4930877;29;20146;-77
2021/12/03 14:59:44;;;;;;;13.73;8.30;;;5.30;99.90;;;;;;4931329;29;20113;-78
2021/12/03 15:02:27;;;;;;;15.73;7.97;;;5.40;99.90;;;;;;4945210;29;20058;-78
2021/12/03 15:05:13;;;;;;;18.02;6.63;;;5.40;99.90;;;;;;4931891;29;20047;-78
2021/12/03 15:07:45;;;;;;;18.63;7.90;;;5.50;99.90;;;;;;4929037;29;20039;-75
2021/12/03 15:10:22;;;;;;;13.70;8.10;;;5.60;99.90;;;;;;4928577;29;20491;-75
2021/12/03 15:13:12;;;;;;;14.88;8.40;;;5.60;99.90;;;;;;4932590;29;20459;-77
2021/12/03 15:29:26;;;;;;;17.58;6.53;;;5.70;99.90;;;;;;4932916;29;20051;-75
2021/12/03 15:39:59;;;;;;;10.95;4.20;;;5.90;99.90;;;;;;4929668;29;20055;-77
2021/12/03 16:09:52;;;;;;;14.75;5.20;;;6.10;99.90;;;;;;4916595;29;20059;-78
2021/12/03 16:56:53;;;;;;;22.20;12.45;;;;;;;;;;5522349;23;20078;-84
2021/12/03 16:59:20;;;;;;;21.08;9.27;;;;;;;;;;4930325;28;20770;-85
2021/12/03 17:01:58;;;;;;;16.33;7.20;;;;;;;;;;4930171;28;20134;-86
2021/12/03 17:44:56;;;;;;;17.10;7.90;;;;;;;;;;4944402;28;21968;-87
2021/12/03 17:56:37;;;;;;;22.73;16.33;;;;;;;;;;4916457;28;20133;-82
2021/12/03 17:59:17;;;;;;;24.13;15.18;;;;;;;;;;4920753;28;20404;-81
2021/12/03 18:01:58;;;;;;;24.73;14.00;;;;;;;;;;4916434;28;20407;-80
2021/12/03 18:04:38;;;;;;;23.48;15.20;;;;;;;;;;4918106;28;20501;-83
2021/12/03 18:55:53;;;;;;;25.45;16.45;;;;;;;;;;4914933;28;20055;-85
2021/12/03 18:58:21;;;;;;;24.42;17.60;;;;;;;;;;4915095;28;20059;-84
2021/12/03 19:00:47;;;;;;;28.90;18.85;;;;;;;;;;4915930;28;20352;-88
2021/12/03 19:08:50;;;;;;;24.85;16.27;;;;;;;;;;4914974;28;20059;-85
2021/12/03 19:11:23;;;;;;;24.90;16.67;;;;;;;;;;4914958;28;20043;-84
2021/12/03 19:13:49;;;;;;;24.92;17.42;;;;;;;;;;4915532;28;20082;-84
2021/12/03 19:16:17;;;;;;;27.80;18.05;;;;;;;;;;4914715;28;20051;-85
2021/12/03 19:18:44;;;;;;;29.23;18.85;;;;;;;;;;4916064;28;20435;-86
2021/12/03 19:21:14;;;;;;;28.40;18.15;;;;;;;;;;4915573;28;20051;-85
2021/12/03 19:23:40;;;;;;;33.00;18.88;;;;;;;;;;4915845;28;20073;-85
2021/12/03 19:26:06;;;;;;;29.10;18.50;;;;;;;;;;4918531;28;20154;-87
2021/12/03 19:28:32;;;;;;;30.17;20.35;;;;;;;;;;4915773;28;20150;-84
2021/12/03 19:30:59;;;;;;;31.58;19.45;;;;;;;;;;4916081;28;20106;-83
2021/12/03 19:33:25;;;;;;;29.40;19.10;;;;;;;;;;4909799;28;20050;-82
2021/12/03 19:35:52;;;;;;;29.23;20.05;;;;;;;;;;4910500;28;20066;-82
2021/12/03 19:38:18;;;;;;;34.42;22.52;;;;;;;;;;4913514;28;20083;-85
2021/12/03 19:40:53;;;;;;;30.42;20.70;;;;;;;;;;4914342;28;20173;-82
2021/12/03 19:43:25;;;;;;;32.88;21.30;;;;;;;;;;4913413;28;20063;-85
2021/12/03 19:45:58;;;;;;;33.60;21.75;;;;;;;;;;4914605;28;20085;-85
2021/12/03 19:48:33;;;;;;;32.53;22.35;;;;;;;;;;4910481;28;21489;-85
2021/12/03 19:51:00;;;;;;;32.42;22.13;;;;;;;;;;4913048;28;20081;-82
2021/12/03 19:53:30;;;;;;;34.47;23.05;;;;;;;;;;4913238;28;20051;-85
2021/12/03 19:55:56;;;;;;;34.25;23.75;;;;;;;;;;4915284;28;20058;-85
2021/12/03 19:58:22;;;;;;;37.30;24.75;;;;;;;;;;4932698;28;20047;-85
2021/12/03 20:00:50;;;;;;;45.85;28.13;;;;;;;;;;4913722;28;20112;-87
2021/12/03 20:03:16;;;;;;;37.22;24.55;;;;;;;;;;4912907;28;20196;-87
2021/12/03 20:05:42;;;;;;;43.13;27.67;;;;;;;;;;4915959;28;20058;-86
2021/12/03 20:08:09;;;;;;;38.20;25.45;;;;;;;;;;4913869;28;20074;-85
2021/12/03 20:10:41;;;;;;;39.15;25.55;;;;;;;;;;4916245;28;20181;-86
2021/12/03 20:13:09;;;;;;;40.53;24.27;;;;;;;;;;4913440;28;20058;-86
2021/12/03 20:15:52;;;;;;;37.30;23.65;;;;;;;;;;4914274;28;20051;-86
2021/12/03 20:18:33;;;;;;;41.45;25.90;;;;;;;;;;4914200;28;20055;-87
2021/12/03 20:20:59;;;;;;;40.45;25.48;;;;;;;;;;4916697;28;20758;-82
2021/12/03 20:23:41;;;;;;;38.70;25.63;;;;;;;;;;4912711;28;20372;-86
2021/12/03 20:28:54;;;;;;;39.45;25.77;;;;;;;;;;4913370;28;20082;-86
2021/12/03 20:31:23;;;;;;;42.92;26.17;;;;;;;;;;4912615;28;20153;-85
2021/12/03 20:36:28;;;;;;;41.92;26.25;;;;;;;;;;4912319;28;20090;-85
2021/12/03 20:39:12;;;;;;;38.92;26.05;;;;;;;;;;4912388;28;20889;-85
2021/12/03 20:46:45;;;;;;;39.58;26.83;;;;;;;;;;4916118;28;20089;-84
2021/12/03 21:10:32;;;;;;;32.35;22.05;;;;;;;;;;4919178;28;20047;-86
2021/12/03 21:13:08;;;;;;;34.97;23.25;;;;;;;;;;4919323;28;20051;-85
2021/12/03 21:15:55;;;;;;;36.65;24.40;;;;;;;;;;4921806;28;20070;-84
2021/12/03 21:18:31;;;;;;;36.78;24.98;;;;;;;;;;4934566;28;20109;-84
2021/12/03 21:21:46;;;;;;;35.33;23.33;;;;;;;;;;4916349;28;20110;-82
2021/12/03 21:23:45;;;;;;;36.80;24.40;;;;;;;;;;4907058;28;20059;-83
2021/12/03 21:26:15;;;;;;;36.60;24.42;;;;;;;;;;4915773;28;20368;-83
2021/12/03 21:28:49;;;;;;;36.33;24.10;;;;;;;;;;4919139;28;20095;-85
2021/12/03 21:31:21;;;;;;;42.47;26.95;;;;;;;;;;4920076;28;20074;-84
2021/12/03 21:39:36;;;;;;;35.67;24.35;;;;;;;;;;4919088;28;20051;-83
2021/12/03 21:42:02;;;;;;;38.20;25.23;;;;;;;;;;4916774;28;20096;-84
2021/12/03 21:44:28;;;;;;;38.17;25.13;;;;;;;;;;4916570;28;20058;-84
2021/12/03 21:46:54;;;;;;;37.35;24.23;;;;;;;;;;4917134;28;20728;-86
2021/12/03 21:49:28;;;;;;;39.28;24.42;;;;;;;;;;5062470;23;20113;-86
2021/12/03 21:52:38;;;;;;;39.38;25.17;;;;;;;;;;4905548;28;20067;-86
2021/12/03 21:55:07;;;;;;;39.70;24.00;;;;;;;;;;4917886;28;20062;-85
2021/12/03 21:57:34;;;;;;;37.30;23.77;;;;;;;;;;4920663;28;20133;-85
2021/12/03 22:00:05;;;;;;;40.63;24.67;;;;;;;;;;4934500;28;20051;-84
2021/12/03 22:02:37;;;;;;;36.78;24.27;;;;;;;;;;4918149;28;20051;-85
2021/12/03 22:05:06;;;;;;;37.70;24.45;;;;;;;;;;4917514;28;20110;-86
2021/12/03 22:07:32;;;;;;;44.40;27.58;;;;;;;;;;4917304;28;20046;-85
2021/12/03 22:09:58;;;;;;;42.28;26.83;;;;;;;;;;4917093;28;20059;-85
2021/12/03 22:12:24;;;;;;;39.58;25.88;;;;;;;;;;4920456;28;20169;-86
2021/12/03 22:14:50;;;;;;;39.88;25.40;;;;;;;;;;4920235;28;20050;-87
2021/12/03 22:17:17;;;;;;;38.55;23.73;;;;;;;;;;4920051;28;20058;-86
2021/12/03 22:19:43;;;;;;;37.60;23.83;;;;;;;;;;4922978;28;20834;-85
2021/12/03 22:22:09;;;;;;;38.90;25.60;;;;;;;;;;4917442;28;20055;-85
2021/12/03 22:24:41;;;;;;;44.25;27.80;;;;;;;;;;4918423;28;20134;-86
2021/12/03 22:27:07;;;;;;;40.80;26.95;;;;;;;;;;4938497;28;20146;-86
2021/12/03 22:29:33;;;;;;;42.60;27.33;;;;;;;;;;4922744;28;20042;-86
2021/12/03 22:32:01;;;;;;;45.65;27.88;;;;;;;;;;4936399;28;20057;-87
2021/12/03 22:34:27;;;;;;;45.17;29.35;;;;;;;;;;4920979;28;21959;-86
2021/12/03 22:36:53;;;;;;;45.83;28.55;;;;;;;;;;4919522;28;20047;-86
2021/12/03 22:39:20;;;;;;;50.85;30.30;;;;;;;;;;4923822;28;20115;-86
2021/12/03 22:41:48;;;;;;;48.17;29.10;;;;;;;;;;4920483;28;20055;-85
2021/12/03 22:44:14;;;;;;;50.75;30.50;;;;;;;;;;4919584;28;20051;-83